createdAt,value
2018-11-07T01:43:00.934Z,11.93
2018-11-07T01:45:29.600Z,10.97
2018-11-07T01:47:58.200Z,11.60
2018-11-07T01:50:26.813Z,11.00
2018-11-07T01:52:55.424Z,10.97
2018-11-07T01:55:24.084Z,11.50
2018-11-07T01:57:52.673Z,12.07
2018-11-07T02:00:21.288Z,11.07
2018-11-07T02:02:49.905Z,11.07
2018-11-07T02:05:18.531Z,11.03
2018-11-07T02:07:47.139Z,11.27
2018-11-07T02:10:15.687Z,11.00
2018-11-07T02:12:44.285Z,10.83
2018-11-07T02:15:12.914Z,11.23
2018-11-07T02:17:41.615Z,11.33
2018-11-07T02:20:11.154Z,11.23
2018-11-07T02:22:39.763Z,11.83
2018-11-07T02:25:08.475Z,10.97
2018-11-07T02:27:37.314Z,11.77
2018-11-07T02:30:07.688Z,11.80
2018-11-07T02:32:36.313Z,11.17
2018-11-07T02:35:05.217Z,11.23
2018-11-07T02:37:33.791Z,10.60
2018-11-07T02:40:02.399Z,10.53
2018-11-07T02:42:30.983Z,11.57
2018-11-07T02:44:59.590Z,12.10
2018-11-07T02:47:28.207Z,11.80
2018-11-07T02:49:56.776Z,12.43
2018-11-07T02:52:25.351Z,12.20
2018-11-07T02:54:53.916Z,11.30
2018-11-07T02:57:22.564Z,12.37
2018-11-07T02:59:51.403Z,11.07
2018-11-07T03:02:19.997Z,11.90
2018-11-07T03:04:48.560Z,11.63
2018-11-07T03:07:17.148Z,11.73
2018-11-07T03:09:45.725Z,14.40
2018-11-07T03:12:14.309Z,11.00
2018-11-07T03:14:42.950Z,10.77
2018-11-07T03:17:11.560Z,11.77
2018-11-07T03:19:40.153Z,11.33
2018-11-07T03:22:08.783Z,10.77
2018-11-07T03:24:37.380Z,11.53
2018-11-07T03:27:05.965Z,11.67
2018-11-07T03:29:34.556Z,11.30
2018-11-07T03:32:03.190Z,11.17
2018-11-07T03:34:31.807Z,10.90
2018-11-07T03:37:00.380Z,12.33
2018-11-07T03:39:29.046Z,12.43
2018-11-07T03:41:57.701Z,11.33
2018-11-07T03:44:26.297Z,11.83
2018-11-07T03:46:54.904Z,11.40
2018-11-07T03:49:23.638Z,11.43
2018-11-07T03:51:52.256Z,12.47
2018-11-07T03:54:20.820Z,12.20
2018-11-07T03:56:49.395Z,11.97
2018-11-07T03:59:17.966Z,12.43
2018-11-07T04:01:52.869Z,11.50
2018-11-07T04:04:21.569Z,12.07
2018-11-07T04:06:50.185Z,11.37
2018-11-07T04:09:18.752Z,12.87
2018-11-07T04:11:47.325Z,12.37
2018-11-07T04:14:15.904Z,11.40
2018-11-07T04:16:44.485Z,12.73
2018-11-07T04:19:13.144Z,12.33
2018-11-07T04:21:41.707Z,12.57
2018-11-07T04:24:10.320Z,12.47
2018-11-07T04:26:39.074Z,12.50
2018-11-07T04:29:07.659Z,11.90
2018-11-07T04:31:36.236Z,12.73
2018-11-07T04:34:04.852Z,11.77
2018-11-07T04:36:33.429Z,11.97
2018-11-07T04:39:02.107Z,10.93
2018-11-07T04:41:30.640Z,11.73
2018-11-07T04:43:59.210Z,10.30
2018-11-07T04:46:27.784Z,12.23
2018-11-07T04:48:56.369Z,12.03
2018-11-07T04:51:24.987Z,11.87
2018-11-07T04:53:53.603Z,11.30
2018-11-07T04:56:22.181Z,12.27
2018-11-07T04:58:50.732Z,12.17
2018-11-07T05:01:19.296Z,11.70
2018-11-07T05:03:47.895Z,12.53
2018-11-07T05:06:16.467Z,13.10
2018-11-07T05:08:45.100Z,12.70
2018-11-07T05:11:13.640Z,11.70
2018-11-07T05:13:42.245Z,12.30
2018-11-07T05:16:10.828Z,12.07
2018-11-07T05:18:39.499Z,11.73
2018-11-07T05:21:08.088Z,12.43
2018-11-07T05:23:36.687Z,13.33
2018-11-07T05:26:05.546Z,10.70
2018-11-07T05:28:34.080Z,12.10
2018-11-07T05:31:02.664Z,11.83
2018-11-07T05:33:31.243Z,13.20
2018-11-07T05:35:59.835Z,14.17
2018-11-07T05:38:28.400Z,12.83
2018-11-07T05:40:56.967Z,12.47
2018-11-07T05:43:25.556Z,16.30
2018-11-07T05:45:54.168Z,13.70
2018-11-07T05:48:22.799Z,13.20
2018-11-07T05:50:51.378Z,12.93
2018-11-07T05:53:19.976Z,14.07
2018-11-07T05:55:48.612Z,13.50
2018-11-07T05:58:17.200Z,12.30
2018-11-07T06:00:45.812Z,11.67
2018-11-07T06:03:14.496Z,12.73
2018-11-07T06:05:43.089Z,14.07
2018-11-07T06:08:11.669Z,14.43
2018-11-07T06:10:40.228Z,15.50
2018-11-07T06:13:08.801Z,14.53
2018-11-07T06:15:37.386Z,14.73
2018-11-07T06:18:06.029Z,17.37
2018-11-07T06:20:34.635Z,18.37
2018-11-07T06:23:03.325Z,16.67
2018-11-07T06:25:31.880Z,13.60
2018-11-07T06:28:00.480Z,13.73
2018-11-07T06:30:29.076Z,14.80
2018-11-07T06:32:57.684Z,15.10
2018-11-07T06:35:26.296Z,14.27
2018-11-07T06:37:54.946Z,14.20
2018-11-07T06:40:23.580Z,12.80
2018-11-07T06:42:52.247Z,13.90
2018-11-07T06:45:20.845Z,13.63
2018-11-07T06:47:49.470Z,13.23
2018-11-07T06:50:18.107Z,12.43
2018-11-07T06:52:46.778Z,13.90
2018-11-07T06:55:15.398Z,23.63
2018-11-07T06:57:44.130Z,13.93
2018-11-07T07:00:15.358Z,15.57
2018-11-07T07:02:44.806Z,15.00
2018-11-07T07:05:13.592Z,15.93
2018-11-07T07:07:42.252Z,15.67
2018-11-07T07:10:13.086Z,15.53
2018-11-07T07:12:41.793Z,15.40
2018-11-07T07:15:12.460Z,14.87
2018-11-07T07:17:41.420Z,14.60
2018-11-07T07:20:13.378Z,18.00
2018-11-07T07:22:42.612Z,17.77
2018-11-07T07:25:12.213Z,18.63
2018-11-07T07:27:41.427Z,22.13
2018-11-07T07:30:12.941Z,17.90
2018-11-07T07:32:42.718Z,17.50
2018-11-07T07:35:11.727Z,16.83
2018-11-07T07:37:40.550Z,17.53
2018-11-07T07:40:11.392Z,17.07
2018-11-07T07:42:40.825Z,15.63
2018-11-07T07:45:12.192Z,15.43
2018-11-07T07:47:41.233Z,14.80
2018-11-07T07:50:12.348Z,16.23
2018-11-07T07:52:41.517Z,15.93
2018-11-07T07:55:10.580Z,17.37
2018-11-07T07:57:39.882Z,14.53
2018-11-07T08:00:13.709Z,14.60
2018-11-07T08:02:47.009Z,16.50
2018-11-07T08:05:15.775Z,15.50
2018-11-07T08:07:44.724Z,16.73
2018-11-07T08:10:14.600Z,20.17
2018-11-07T08:12:43.804Z,18.00
2018-11-07T08:15:12.703Z,17.63
2018-11-07T08:17:42.430Z,16.40
2018-11-07T08:20:12.269Z,17.53
2018-11-07T08:22:41.160Z,17.07
2018-11-07T08:25:09.835Z,17.93
2018-11-07T08:27:38.532Z,20.13
2018-11-07T08:30:10.184Z,20.07
2018-11-07T08:32:39.029Z,23.47
2018-11-07T08:35:09.008Z,20.50
2018-11-07T08:37:37.915Z,19.03
2018-11-07T08:40:10.613Z,18.53
2018-11-07T08:42:39.741Z,15.83
2018-11-07T08:45:09.273Z,17.13
2018-11-07T08:47:38.090Z,23.87
2018-11-07T08:50:08.986Z,19.97
2018-11-07T08:52:37.765Z,17.97
2018-11-07T08:55:07.915Z,15.50
2018-11-07T08:57:36.761Z,16.33
2018-11-07T09:00:08.983Z,16.17
2018-11-07T09:02:37.591Z,16.83
2018-11-07T09:05:06.484Z,15.47
2018-11-07T09:07:35.132Z,16.70
2018-11-07T09:10:03.768Z,16.60
2018-11-07T09:12:32.369Z,17.17
2018-11-07T09:15:01.013Z,17.77
2018-11-07T09:17:29.592Z,15.43
2018-11-07T09:19:58.318Z,16.23
2018-11-07T09:22:26.937Z,14.23
2018-11-07T09:24:55.529Z,15.07
2018-11-07T09:27:24.137Z,14.77
2018-11-07T09:29:52.751Z,14.17
2018-11-07T09:32:21.325Z,14.83
2018-11-07T09:34:49.912Z,13.50
2018-11-07T09:37:18.516Z,12.77
2018-11-07T09:39:47.218Z,13.37
2018-11-07T09:42:15.741Z,14.50
2018-11-07T09:44:44.420Z,12.63
2018-11-07T09:47:13.007Z,14.00
2018-11-07T09:49:41.635Z,11.93
2018-11-07T09:52:10.396Z,14.20
2018-11-07T09:54:39.126Z,13.10
2018-11-07T09:57:07.719Z,13.80
2018-11-07T09:59:36.501Z,12.57
2018-11-07T10:02:05.500Z,12.87
2018-11-07T10:04:34.226Z,12.93
2018-11-07T10:07:03.060Z,13.20
2018-11-07T10:09:31.841Z,12.83
2018-11-07T10:12:00.488Z,14.40
2018-11-07T10:14:29.224Z,13.67
2018-11-07T10:16:57.817Z,12.83
2018-11-07T10:19:26.543Z,13.40
2018-11-07T10:21:55.295Z,13.10
2018-11-07T10:24:23.964Z,14.60
2018-11-07T10:26:52.809Z,15.43
2018-11-07T10:29:21.665Z,13.40
2018-11-07T10:31:50.196Z,14.77
2018-11-07T10:34:18.800Z,14.80
2018-11-07T10:36:47.621Z,16.00
2018-11-07T10:39:16.241Z,14.70
2018-11-07T10:41:44.986Z,15.30
2018-11-07T10:44:13.859Z,15.03
2018-11-07T10:46:42.547Z,14.77
2018-11-07T10:49:11.401Z,15.60
2018-11-07T10:51:46.600Z,13.97
2018-11-07T10:54:15.274Z,16.53
2018-11-07T10:56:43.916Z,15.37
2018-11-07T10:59:12.515Z,14.60
2018-11-07T11:01:46.480Z,16.90
2018-11-07T11:04:15.392Z,14.97
2018-11-07T11:06:43.965Z,15.43
2018-11-07T11:09:12.716Z,14.80
2018-11-07T11:11:41.316Z,14.43
2018-11-07T11:14:09.927Z,14.90
2018-11-07T11:16:38.513Z,16.97
2018-11-07T11:19:07.154Z,14.63
2018-11-07T11:21:35.745Z,16.90
2018-11-07T11:24:04.345Z,14.60
2018-11-07T11:26:32.936Z,15.20
2018-11-07T11:29:01.556Z,16.00
2018-11-07T11:31:30.169Z,16.20
2018-11-07T11:33:58.902Z,16.20
2018-11-07T11:36:27.359Z,15.40
2018-11-07T11:38:55.943Z,14.80
2018-11-07T11:41:24.558Z,15.60
2018-11-07T11:43:53.150Z,15.30
2018-11-07T11:46:21.747Z,15.20
2018-11-07T11:48:50.320Z,15.87
2018-11-07T11:51:18.966Z,14.33
2018-11-07T11:53:47.506Z,15.43
2018-11-07T11:56:16.120Z,13.83
2018-11-07T11:58:44.748Z,15.93
2018-11-07T12:01:13.325Z,13.67
2018-11-07T12:03:42.056Z,14.33
2018-11-07T12:06:10.640Z,14.47
2018-11-07T12:08:39.235Z,14.20
2018-11-07T12:11:07.849Z,15.60
2018-11-07T12:13:36.468Z,14.47
2018-11-07T12:16:05.052Z,14.53
2018-11-07T12:18:33.627Z,13.83
2018-11-07T12:21:02.319Z,15.10
2018-11-07T12:23:30.896Z,14.33
2018-11-07T12:25:59.487Z,14.10
2018-11-07T12:28:28.112Z,15.60
2018-11-07T12:30:56.721Z,15.97
2018-11-07T12:33:25.269Z,14.03
2018-11-07T12:35:53.856Z,15.17
2018-11-07T12:38:22.453Z,15.57
2018-11-07T12:40:51.068Z,14.97
2018-11-07T12:43:19.690Z,14.80
2018-11-07T12:45:48.300Z,16.63
2018-11-07T12:48:16.860Z,15.60
2018-11-07T12:50:45.423Z,14.27
2018-11-07T12:53:14.028Z,15.60
2018-11-07T12:55:42.612Z,16.20
2018-11-07T12:58:11.309Z,14.60
2018-11-07T13:00:39.795Z,16.53
2018-11-07T13:03:08.435Z,16.00
2018-11-07T13:05:37.008Z,14.90
2018-11-07T13:08:05.801Z,15.43
2018-11-07T13:10:34.548Z,15.30
2018-11-07T13:13:03.128Z,16.83
2018-11-07T13:15:31.720Z,14.67
2018-11-07T13:18:00.323Z,14.93
2018-11-07T13:20:28.927Z,15.30
2018-11-07T13:22:57.500Z,15.70
2018-11-07T13:25:26.493Z,16.87
2018-11-07T13:27:55.244Z,17.60
2018-11-07T13:30:24.105Z,16.50
2018-11-07T13:32:52.718Z,17.30
2018-11-07T13:35:21.449Z,16.43
2018-11-07T13:37:50.830Z,18.30
2018-11-07T13:40:21.493Z,17.93
2018-11-07T13:42:50.175Z,17.53
2018-11-07T13:45:20.399Z,18.20
2018-11-07T13:47:50.124Z,18.33
2018-11-07T13:50:19.107Z,18.50
2018-11-07T13:52:47.781Z,17.73
2018-11-07T13:55:16.444Z,18.10
2018-11-07T13:57:45.312Z,19.77
2018-11-07T14:00:22.908Z,18.43
2018-11-07T14:02:52.256Z,19.27
2018-11-07T14:05:21.080Z,18.80
2018-11-07T14:07:49.559Z,18.53
2018-11-07T14:10:21.348Z,18.23
2018-11-07T14:12:51.064Z,18.23
2018-11-07T14:15:19.688Z,18.83
2018-11-07T14:17:48.363Z,19.83
2018-11-07T14:20:17.105Z,19.90
2018-11-07T14:22:45.704Z,19.87
2018-11-07T14:25:14.520Z,18.70
2018-11-07T14:27:43.296Z,19.67
2018-11-07T14:30:13.544Z,20.57
2018-11-07T14:32:43.663Z,22.13
2018-11-07T14:35:12.357Z,21.03
2018-11-07T14:37:41.050Z,20.30
2018-11-07T14:40:09.859Z,21.77
2018-11-07T14:42:38.459Z,21.03
2018-11-07T14:45:07.866Z,23.37
2018-11-07T14:47:36.509Z,21.20
2018-11-07T14:50:06.555Z,21.43
2018-11-07T14:52:35.144Z,23.90
2018-11-07T14:55:03.787Z,21.83
2018-11-07T14:57:32.801Z,21.43
2018-11-07T15:00:01.453Z,21.67
2018-11-07T15:02:30.176Z,22.23
2018-11-07T15:04:58.750Z,23.87
2018-11-07T15:07:27.376Z,23.00
2018-11-07T15:09:56.037Z,22.97
2018-11-07T15:12:24.584Z,23.40
2018-11-07T15:14:53.173Z,25.63
2018-11-07T15:17:21.812Z,22.10
2018-11-07T15:19:50.508Z,24.53
2018-11-07T15:22:19.127Z,23.70
2018-11-07T15:24:47.750Z,22.53
2018-11-07T15:27:16.320Z,22.70
2018-11-07T15:29:44.912Z,23.37
2018-11-07T15:32:13.525Z,24.13
2018-11-07T15:34:42.091Z,23.43
2018-11-07T15:37:10.791Z,24.20
2018-11-07T15:39:39.363Z,23.17
2018-11-07T15:42:07.948Z,23.87
2018-11-07T15:44:36.581Z,26.07
2018-11-07T15:47:05.259Z,24.23
2018-11-07T15:49:33.864Z,23.70
2018-11-07T15:52:02.554Z,24.23
2018-11-07T15:54:31.108Z,23.27
2018-11-07T15:56:59.691Z,24.07
2018-11-07T15:59:28.283Z,24.23
2018-11-07T16:01:56.928Z,23.50
2018-11-07T16:04:25.507Z,23.97
2018-11-07T16:06:54.104Z,23.33
2018-11-07T16:09:22.716Z,24.00
2018-11-07T16:11:51.333Z,25.70
2018-11-07T16:14:19.936Z,25.43
2018-11-07T16:16:48.512Z,24.57
2018-11-07T16:19:17.161Z,24.90
2018-11-07T16:21:45.737Z,26.70
2018-11-07T16:24:14.320Z,32.13
2018-11-07T16:26:42.896Z,29.30
2018-11-07T16:29:11.532Z,30.43
2018-11-07T16:31:40.146Z,31.03
2018-11-07T16:34:08.709Z,31.70
2018-11-07T16:36:37.339Z,30.37
2018-11-07T16:39:08.216Z,34.87
2018-11-07T16:41:36.886Z,40.47
2018-11-07T16:44:05.773Z,32.93
2018-11-07T16:46:34.616Z,34.97
2018-11-07T16:49:03.283Z,42.70
2018-11-07T16:51:32.060Z,37.77
2018-11-07T16:54:00.851Z,37.70
2018-11-07T16:56:29.468Z,37.43
2018-11-07T16:58:58.187Z,38.07
2018-11-07T17:01:33.628Z,44.47
2018-11-07T17:04:02.382Z,42.83
2018-11-07T17:06:30.972Z,44.60
2018-11-07T17:08:59.707Z,36.47
2018-11-07T17:11:28.363Z,34.90
2018-11-07T17:13:57.075Z,32.90
2018-11-07T17:16:25.812Z,33.17
2018-11-07T17:18:54.481Z,38.70
2018-11-07T17:21:23.173Z,39.13
2018-11-07T17:23:51.825Z,35.17
2018-11-07T17:26:20.513Z,36.60
2018-11-07T17:28:49.228Z,50.60
2018-11-07T17:31:17.966Z,32.17
2018-11-07T17:33:46.943Z,31.40
2018-11-07T17:36:15.626Z,32.73
2018-11-07T17:38:44.439Z,29.03
2018-11-07T17:41:13.032Z,29.93
2018-11-07T17:43:41.866Z,28.37
2018-11-07T17:46:10.922Z,29.20
2018-11-07T17:48:40.039Z,29.47
2018-11-07T17:51:08.397Z,28.57
2018-11-07T17:53:37.312Z,28.27
2018-11-07T17:56:06.153Z,31.90
2018-11-07T17:58:34.966Z,72.27
2018-11-07T18:01:03.883Z,45.20
2018-11-07T18:03:32.681Z,33.43
2018-11-07T18:06:01.537Z,32.17
2018-11-07T18:08:30.406Z,35.23
2018-11-07T18:10:59.213Z,35.10
2018-11-07T18:13:28.083Z,31.63
2018-11-07T18:15:56.829Z,31.60
2018-11-07T18:18:25.583Z,29.47
2018-11-07T18:20:54.456Z,31.17
2018-11-07T18:23:23.164Z,30.13
2018-11-07T18:25:51.973Z,37.03
2018-11-07T18:28:20.758Z,41.80
2018-11-07T18:30:49.555Z,40.33
2018-11-07T18:33:18.399Z,33.80
2018-11-07T18:35:47.188Z,33.60
2018-11-07T18:38:15.816Z,32.03
2018-11-07T18:40:44.651Z,32.47
2018-11-07T18:43:13.434Z,31.77
2018-11-07T18:45:42.022Z,31.13
2018-11-07T18:48:10.895Z,30.57
2018-11-07T18:50:39.583Z,31.47
2018-11-07T18:53:08.345Z,33.67
2018-11-07T18:55:36.966Z,31.27
2018-11-07T18:58:06.111Z,29.83
2018-11-07T19:00:34.870Z,30.50
2018-11-07T19:03:03.633Z,30.23
2018-11-07T19:05:32.314Z,29.93
2018-11-07T19:08:01.051Z,30.63
2018-11-07T19:10:29.726Z,31.20
2018-11-07T19:12:58.416Z,32.23
2018-11-07T19:15:27.038Z,29.60
2018-11-07T19:17:55.628Z,30.13
2018-11-07T19:20:24.350Z,30.70
2018-11-07T19:22:52.960Z,36.13
2018-11-07T19:25:21.925Z,37.53
2018-11-07T19:27:50.673Z,44.33
2018-11-07T19:30:20.591Z,52.53
2018-11-07T19:32:50.260Z,47.30
2018-11-07T19:35:19.410Z,52.60
2018-11-07T19:37:48.801Z,46.03
2018-11-07T19:40:18.873Z,43.20
2018-11-07T19:42:47.472Z,51.17
2018-11-07T19:45:18.333Z,46.67
2018-11-07T19:47:47.138Z,49.33
2018-11-07T19:50:17.050Z,46.73
2018-11-07T19:52:46.759Z,47.13
2018-11-07T19:55:18.274Z,37.50
2018-11-07T19:57:48.971Z,37.03
2018-11-07T20:00:17.809Z,34.57
2018-11-07T20:02:46.868Z,33.63
2018-11-07T20:05:15.675Z,31.27
2018-11-07T20:07:44.275Z,36.33
2018-11-07T20:10:15.364Z,33.20
2018-11-07T20:12:43.932Z,35.27
2018-11-07T20:15:13.684Z,33.00
2018-11-07T20:17:42.344Z,35.57
2018-11-07T20:20:11.296Z,32.43
2018-11-07T20:22:39.924Z,31.43
2018-11-07T20:25:09.497Z,30.83
2018-11-07T20:27:38.112Z,30.47
2018-11-07T20:30:08.796Z,28.87
2018-11-07T20:32:37.665Z,29.87
2018-11-07T20:35:07.779Z,29.13
2018-11-07T20:37:36.391Z,30.77
2018-11-07T20:40:06.272Z,31.67
2018-11-07T20:42:34.864Z,30.57
2018-11-07T20:45:03.533Z,29.90
2018-11-07T20:47:32.134Z,30.07
2018-11-07T20:50:00.812Z,31.73
2018-11-07T20:52:29.519Z,30.70
2018-11-07T20:54:58.154Z,29.67
2018-11-07T20:57:26.687Z,28.63
2018-11-07T20:59:55.244Z,29.53
2018-11-07T21:02:23.904Z,28.83
2018-11-07T21:04:52.643Z,29.97
2018-11-07T21:07:21.300Z,27.33
2018-11-07T21:09:49.989Z,27.03
2018-11-07T21:12:18.657Z,29.20
2018-11-07T21:14:47.291Z,28.00
2018-11-07T21:17:15.905Z,29.57
2018-11-07T21:19:44.576Z,29.20
2018-11-07T21:22:13.838Z,29.50
2018-11-07T21:24:42.456Z,30.00
2018-11-07T21:27:11.148Z,31.97
2018-11-07T21:29:39.652Z,30.00
2018-11-07T21:32:08.300Z,31.13
2018-11-07T21:34:36.924Z,31.10
2018-11-07T21:37:05.625Z,30.77
2018-11-07T21:39:34.237Z,30.70
2018-11-07T21:42:02.819Z,33.37
2018-11-07T21:44:31.436Z,28.63
2018-11-07T21:47:00.031Z,28.27
2018-11-07T21:49:28.634Z,29.30
2018-11-07T21:51:57.240Z,28.00
2018-11-07T21:54:25.850Z,29.70
2018-11-07T21:56:54.442Z,28.13
2018-11-07T21:59:23.178Z,49.30
2018-11-07T22:01:51.827Z,35.90
2018-11-07T22:04:20.687Z,31.80
2018-11-07T22:06:49.394Z,30.07
2018-11-07T22:09:18.008Z,35.83
2018-11-07T22:11:46.730Z,33.23
2018-11-07T22:14:15.386Z,32.53
2018-11-07T22:16:44.086Z,30.30
2018-11-07T22:19:12.952Z,29.73
2018-11-07T22:21:41.692Z,28.70
2018-11-07T22:24:10.522Z,29.43
2018-11-07T22:26:39.146Z,27.73
2018-11-07T22:29:07.898Z,27.07
2018-11-07T22:31:36.550Z,30.23
2018-11-07T22:34:05.172Z,31.70
2018-11-07T22:36:33.942Z,28.37
2018-11-07T22:39:02.665Z,29.07
2018-11-07T22:41:31.310Z,29.00
2018-11-07T22:44:00.094Z,30.43
2018-11-07T22:46:28.799Z,26.63
2018-11-07T22:48:57.403Z,28.10
2018-11-07T22:51:26.121Z,33.00
2018-11-07T22:53:54.826Z,33.53
2018-11-07T22:56:23.468Z,33.27
2018-11-07T22:58:52.142Z,36.70
2018-11-07T23:01:22.154Z,37.73
2018-11-07T23:03:51.760Z,35.90
2018-11-07T23:06:20.398Z,29.73
2018-11-07T23:08:49.135Z,27.23
2018-11-07T23:11:17.863Z,27.57
2018-11-07T23:13:46.619Z,26.20
2018-11-07T23:16:15.358Z,25.53
2018-11-07T23:18:44.049Z,25.50
2018-11-07T23:21:12.676Z,24.73
2018-11-07T23:23:41.442Z,29.57
2018-11-07T23:26:10.108Z,26.63
2018-11-07T23:28:38.826Z,27.60
2018-11-07T23:31:07.569Z,28.13
2018-11-07T23:33:36.201Z,28.87
2018-11-07T23:36:04.967Z,34.40
2018-11-07T23:38:33.791Z,30.30
2018-11-07T23:41:02.469Z,31.77
2018-11-07T23:43:31.192Z,27.23
2018-11-07T23:45:59.906Z,27.10
2018-11-07T23:48:28.502Z,24.53
2018-11-07T23:50:57.077Z,23.73
2018-11-07T23:53:25.664Z,26.67
2018-11-07T23:55:54.244Z,25.87
2018-11-07T23:58:22.831Z,23.67
